Regan, North Dakota
Current Conditions -  °F | °C
As of 2:52 PM on Tuesday 21 Oct 2014 (Local Time) from KBIS Reporting Station
Clear Clear  
Wind Chill: 27°   Ceiling: Unl
Heat Index: 27°   Visibility: 10mi
Dew Point:   Wind: 24mph
Humidity: 29%   Direction: 160°SSE
Pressure: 29.68"   Gusts: 29mph
Location:  47.16°N, 100.53°W
Report Text: KBIS 211952Z 16021G25KT 10SM CLR 27/07 A2968 RMK AO2 SLP045 T02670072
Loading
Personal Weather Stations






























Interactive Weather Map
Tropical Storm Tracking
New forecast layout! Learn more

10-Day Weather Forecast

Advertisements
Track Severe Weather on mobile